Time;durP1;ratioP1;P1;durP2;ratioP2;P2;SDS_P1;SDS_P2;PMS_P1;PMS_P2;Temp;Humidity;BMP_temperature;BMP_pressure;BME280_temperature;BME280_humidity;BME280_pressure;Samples;Min_cycle;Max_cycle;Signal;HPM_P1;HPM_P2
2022/01/05 00:00:27;;;;;;;11.27;1.40;;;4.10;96.80;;;;;;5094633;28;20035;-74
2022/01/05 00:02:52;;;;;;;11.43;1.33;;;4.10;96.90;;;;;;5093465;28;20035;-74
2022/01/05 00:05:18;;;;;;;11.93;1.80;;;4.10;96.90;;;;;;5094285;28;20070;-74
2022/01/05 00:07:44;;;;;;;7.60;2.23;;;4.00;96.90;;;;;;5095468;28;20081;-75
2022/01/05 00:10:10;;;;;;;6.80;1.37;;;4.00;96.90;;;;;;5095245;28;20067;-75
2022/01/05 00:12:36;;;;;;;13.00;1.93;;;4.00;96.90;;;;;;5095153;28;20498;-75
2022/01/05 00:15:03;;;;;;;12.37;1.70;;;3.90;96.90;;;;;;5093951;28;20111;-75
2022/01/05 00:17:29;;;;;;;8.63;1.40;;;3.90;97.00;;;;;;5095236;28;20499;-75
2022/01/05 00:19:56;;;;;;;12.37;2.03;;;3.80;97.00;;;;;;5093870;28;20033;-75
2022/01/05 00:22:21;;;;;;;8.27;1.70;;;3.80;97.40;;;;;;5093816;28;20138;-74
2022/01/05 00:24:47;;;;;;;6.83;1.40;;;3.80;97.10;;;;;;5076960;28;20115;-75
2022/01/05 00:27:14;;;;;;;12.80;2.07;;;3.80;97.10;;;;;;5093809;28;20036;-77
2022/01/05 00:29:39;;;;;;;8.67;1.50;;;3.70;97.10;;;;;;5093927;28;20031;-74
2022/01/05 00:32:05;;;;;;;12.67;1.70;;;3.70;97.10;;;;;;5093461;28;20043;-75
2022/01/05 00:34:31;;;;;;;9.53;1.20;;;3.60;97.10;;;;;;5076960;28;20124;-74
2022/01/05 00:36:57;;;;;;;12.20;1.40;;;3.60;97.20;;;;;;5093425;28;20106;-75
2022/01/05 00:39:22;;;;;;;10.33;1.40;;;3.60;97.20;;;;;;5093654;28;20412;-75
2022/01/05 00:41:48;;;;;;;7.57;1.43;;;3.50;97.20;;;;;;5076474;28;20027;-75
2022/01/05 00:44:13;;;;;;;8.43;1.23;;;3.60;97.20;;;;;;5076711;28;20369;-75
2022/01/05 00:46:39;;;;;;;10.43;2.03;;;3.50;97.10;;;;;;5093465;28;20040;-75
2022/01/05 00:49:05;;;;;;;13.53;1.13;;;3.50;97.40;;;;;;5094844;28;20051;-75
2022/01/05 00:51:30;;;;;;;18.33;1.67;;;3.50;97.10;;;;;;5093446;28;20031;-75
2022/01/05 00:53:56;;;;;;;7.67;1.60;;;3.50;97.10;;;;;;5093669;28;20062;-75
2022/01/05 00:56:22;;;;;;;12.33;1.53;;;3.50;97.10;;;;;;5093314;28;20082;-75
2022/01/05 00:58:47;;;;;;;12.50;1.60;;;3.40;97.10;;;;;;5093528;28;20493;-75
2022/01/05 01:01:13;;;;;;;9.23;1.00;;;3.40;97.00;;;;;;5093388;28;20056;-75
2022/01/05 01:03:39;;;;;;;6.53;1.50;;;3.50;97.00;;;;;;5093698;28;20456;-75
2022/01/05 01:06:05;;;;;;;11.40;1.80;;;3.60;96.80;;;;;;5093328;28;20473;-75
2022/01/05 01:08:31;;;;;;;9.50;1.20;;;3.60;96.80;;;;;;5094131;28;20387;-75
2022/01/05 01:10:57;;;;;;;19.60;2.50;;;3.50;96.70;;;;;;5076497;28;20024;-75
2022/01/05 01:13:23;;;;;;;7.20;1.27;;;3.50;96.70;;;;;;5094186;28;20035;-75
2022/01/05 01:15:50;;;;;;;9.70;1.73;;;3.50;96.70;;;;;;5095084;28;20422;-74
2022/01/05 01:18:17;;;;;;;10.73;1.43;;;3.40;96.60;;;;;;5099253;28;20044;-74
2022/01/05 01:20:43;;;;;;;9.23;0.97;;;3.40;96.60;;;;;;5094107;28;20024;-75
2022/01/05 01:23:09;;;;;;;11.43;1.73;;;3.40;96.60;;;;;;5094541;28;20095;-74
2022/01/05 01:25:35;;;;;;;8.77;1.20;;;3.40;96.60;;;;;;5092829;28;20104;-74
2022/01/05 01:28:02;;;;;;;20.67;1.63;;;3.40;96.60;;;;;;5094111;28;20440;-74
2022/01/05 01:30:30;;;;;;;14.40;1.60;;;3.30;96.60;;;;;;5092709;28;20476;-74
2022/01/05 01:32:56;;;;;;;13.77;1.67;;;3.30;96.60;;;;;;5092457;28;20031;-75
2022/01/05 01:35:22;;;;;;;15.47;1.47;;;3.30;96.60;;;;;;5093111;28;20032;-74
2022/01/05 01:37:47;;;;;;;8.97;1.17;;;3.30;96.60;;;;;;5092823;28;20078;-75
2022/01/05 01:40:13;;;;;;;14.53;1.57;;;3.30;96.70;;;;;;5092638;28;20515;-76
2022/01/05 01:42:39;;;;;;;10.17;1.30;;;3.30;96.70;;;;;;5075480;28;20384;-75
2022/01/05 01:45:05;;;;;;;13.63;1.70;;;3.40;96.70;;;;;;5093672;28;20036;-75
2022/01/05 01:47:31;;;;;;;11.67;1.43;;;3.40;96.70;;;;;;5092469;28;20044;-75
2022/01/05 01:49:56;;;;;;;16.33;2.20;;;3.40;96.70;;;;;;5092543;28;20047;-75
2022/01/05 01:52:22;;;;;;;17.50;2.27;;;3.40;96.70;;;;;;5092529;28;20035;-75
2022/01/05 01:54:48;;;;;;;8.80;1.57;;;3.40;96.70;;;;;;5075479;28;20503;-74
2022/01/05 01:57:14;;;;;;;9.77;1.77;;;3.30;96.70;;;;;;5092207;28;20043;-75
2022/01/05 01:59:40;;;;;;;9.20;1.37;;;3.30;96.70;;;;;;5092287;28;20475;-75
2022/01/05 02:02:07;;;;;;;12.17;2.23;;;3.30;96.70;;;;;;5093379;28;20103;-74
2022/01/05 02:04:35;;;;;;;14.23;2.50;;;3.30;96.70;;;;;;5075618;28;20020;-75
2022/01/05 02:07:03;;;;;;;9.47;1.80;;;3.20;96.70;;;;;;5092313;28;20051;-74
2022/01/05 02:09:29;;;;;;;15.90;2.57;;;3.20;96.70;;;;;;5093515;28;20520;-75
2022/01/05 02:11:54;;;;;;;10.97;1.87;;;3.20;96.70;;;;;;5058962;28;20113;-74
2022/01/05 02:14:20;;;;;;;13.63;2.27;;;3.20;96.80;;;;;;5093227;28;20023;-74
2022/01/05 02:16:47;;;;;;;18.47;2.10;;;3.10;96.80;;;;;;5093567;28;20032;-75
2022/01/05 02:19:13;;;;;;;9.77;1.87;;;3.10;96.70;;;;;;5093426;28;20024;-74
2022/01/05 02:21:42;;;;;;;11.80;1.90;;;3.20;96.70;;;;;;5092151;28;20042;-75
2022/01/05 02:24:08;;;;;;;10.40;1.80;;;3.10;96.70;;;;;;5092278;28;20391;-74
2022/01/05 02:26:35;;;;;;;10.47;2.03;;;3.10;96.60;;;;;;5094668;28;20050;-74
2022/01/05 02:29:00;;;;;;;16.23;2.20;;;3.10;96.50;;;;;;5097390;28;20399;-75
2022/01/05 02:31:26;;;;;;;14.20;1.80;;;3.10;96.70;;;;;;5096193;28;20043;-74
2022/01/05 02:33:53;;;;;;;11.43;1.70;;;3.10;96.40;;;;;;5096219;28;20025;-75
2022/01/05 02:36:20;;;;;;;7.50;1.57;;;3.10;96.30;;;;;;5095863;28;20028;-75
2022/01/05 02:38:48;;;;;;;9.90;1.80;;;3.10;96.30;;;;;;5096134;28;20020;-75
2022/01/05 02:41:13;;;;;;;10.63;1.47;;;3.10;96.20;;;;;;5097235;28;20126;-75
2022/01/05 02:43:41;;;;;;;15.97;2.57;;;3.10;96.20;;;;;;5097027;28;20751;-75
2022/01/05 02:46:21;;;;;;;15.83;2.13;;;3.10;95.90;;;;;;5096909;28;20040;-75
2022/01/05 02:48:49;;;;;;;15.07;2.00;;;3.10;95.80;;;;;;5097184;28;20020;-76
2022/01/05 02:51:15;;;;;;;12.03;1.63;;;3.10;95.70;;;;;;5095689;28;20032;-74
2022/01/05 02:53:41;;;;;;;17.87;2.10;;;3.00;95.50;;;;;;5079028;28;20024;-75
2022/01/05 02:56:07;;;;;;;14.40;1.90;;;3.10;95.70;;;;;;5095688;28;20440;-74
2022/01/05 02:58:32;;;;;;;10.87;2.00;;;3.00;95.50;;;;;;5095560;28;20097;-76
2022/01/05 03:00:58;;;;;;;9.73;1.40;;;3.10;95.50;;;;;;5095712;28;20024;-75
2022/01/05 03:03:24;;;;;;;15.50;2.27;;;3.00;95.40;;;;;;5096744;28;20024;-76
2022/01/05 03:05:50;;;;;;;10.30;1.63;;;3.00;95.10;;;;;;5095564;28;20028;-75
2022/01/05 03:08:16;;;;;;;8.10;1.70;;;3.20;95.10;;;;;;5096484;28;20500;-75
2022/01/05 03:10:41;;;;;;;11.17;1.33;;;3.10;95.00;;;;;;5096630;28;20358;-74
2022/01/05 03:13:07;;;;;;;11.87;1.77;;;3.10;95.10;;;;;;5096750;28;20054;-75
2022/01/05 03:15:35;;;;;;;11.83;1.70;;;3.10;95.10;;;;;;5078409;28;20020;-75
2022/01/05 03:18:02;;;;;;;16.40;1.80;;;3.10;94.80;;;;;;5095388;28;20024;-76
2022/01/05 03:20:29;;;;;;;15.50;1.90;;;3.10;94.80;;;;;;5096374;28;20441;-75
2022/01/05 03:22:55;;;;;;;8.87;1.43;;;3.10;94.80;;;;;;5096355;28;20027;-74
2022/01/05 03:25:21;;;;;;;8.50;1.33;;;3.10;94.80;;;;;;5095165;28;20028;-74
2022/01/05 03:27:48;;;;;;;6.83;1.40;;;3.10;94.80;;;;;;5094991;28;20032;-76
2022/01/05 03:30:19;;;;;;;16.40;2.03;;;3.10;94.70;;;;;;5095429;28;20099;-74
2022/01/05 03:33:30;;;;;;;12.80;2.27;;;3.10;94.70;;;;;;5096390;28;20016;-74
2022/01/05 03:35:36;;;;;;;8.50;1.67;;;3.10;94.80;;;;;;5085333;28;20039;-75
2022/01/05 03:38:02;;;;;;;9.47;1.57;;;3.00;94.80;;;;;;5093852;28;20020;-74
2022/01/05 03:40:28;;;;;;;12.23;2.10;;;3.10;95.00;;;;;;5077988;28;20024;-80
2022/01/05 03:42:54;;;;;;;11.03;1.53;;;3.10;94.90;;;;;;5061388;28;20027;-77
2022/01/05 03:45:20;;;;;;;17.03;2.13;;;3.10;95.00;;;;;;5094667;28;20063;-77
2022/01/05 03:47:45;;;;;;;13.27;1.70;;;3.10;94.90;;;;;;5094521;28;20099;-77
2022/01/05 03:50:11;;;;;;;12.40;1.80;;;3.10;95.00;;;;;;5094485;28;20058;-77
2022/01/05 03:52:37;;;;;;;11.63;1.93;;;3.10;95.10;;;;;;5094759;28;20032;-83
2022/01/05 03:55:05;;;;;;;13.40;1.50;;;3.10;95.10;;;;;;5094371;28;20115;-77
2022/01/05 03:57:32;;;;;;;12.97;1.90;;;3.00;95.10;;;;;;5095486;28;20437;-77
2022/01/05 03:59:58;;;;;;;11.27;2.37;;;3.00;95.10;;;;;;5094253;28;20035;-76
2022/01/05 04:02:24;;;;;;;14.30;1.90;;;3.00;95.20;;;;;;5095460;28;20024;-77
2022/01/05 04:04:50;;;;;;;16.40;2.60;;;3.00;95.40;;;;;;5078084;28;20073;-77
2022/01/05 04:07:16;;;;;;;13.97;1.70;;;3.10;95.10;;;;;;5095396;28;20103;-77
2022/01/05 04:09:41;;;;;;;13.83;1.97;;;3.00;95.10;;;;;;5094265;28;20028;-81
2022/01/05 04:12:08;;;;;;;13.03;1.50;;;3.10;95.10;;;;;;5077493;28;20032;-77
2022/01/05 04:14:33;;;;;;;16.87;1.70;;;3.00;95.20;;;;;;5060474;28;20036;-77
2022/01/05 04:16:59;;;;;;;16.70;2.63;;;3.00;95.10;;;;;;5094012;28;20119;-77
2022/01/05 04:19:25;;;;;;;12.97;1.70;;;3.00;95.20;;;;;;5093888;28;20031;-76
2022/01/05 04:21:51;;;;;;;13.67;1.93;;;3.00;95.20;;;;;;5094962;28;20107;-77
2022/01/05 04:24:17;;;;;;;18.13;3.67;;;3.00;95.30;;;;;;5094979;28;20469;-76
2022/01/05 04:26:43;;;;;;;14.67;3.60;;;3.00;95.40;;;;;;5094977;28;20031;-77
2022/01/05 04:29:08;;;;;;;12.73;1.87;;;3.00;95.40;;;;;;5094011;28;20195;-77
2022/01/05 04:31:34;;;;;;;10.87;1.80;;;3.00;95.50;;;;;;5093726;28;20050;-77
2022/01/05 04:34:00;;;;;;;9.20;2.67;;;3.00;95.50;;;;;;5094795;28;20077;-77
2022/01/05 04:36:26;;;;;;;11.20;1.20;;;2.90;95.80;;;;;;5076645;28;20035;-77
2022/01/05 04:38:52;;;;;;;16.80;1.33;;;2.90;95.60;;;;;;5093899;28;20032;-77
2022/01/05 04:41:18;;;;;;;11.33;1.87;;;3.00;95.70;;;;;;5093810;28;20032;-77
2022/01/05 04:43:43;;;;;;;12.83;1.63;;;3.00;95.70;;;;;;5094585;28;20020;-77
2022/01/05 04:46:09;;;;;;;14.40;1.73;;;2.90;95.80;;;;;;5093117;28;20491;-77
2022/01/05 04:48:35;;;;;;;13.23;1.53;;;2.90;95.90;;;;;;5093011;28;20442;-77
2022/01/05 04:51:00;;;;;;;12.07;2.63;;;2.90;95.90;;;;;;5094563;28;20077;-77
2022/01/05 04:53:26;;;;;;;11.50;1.70;;;3.00;96.10;;;;;;5093358;28;20032;-76
2022/01/05 04:55:53;;;;;;;16.13;2.33;;;3.00;96.10;;;;;;5076238;28;20032;-77
2022/01/05 04:58:19;;;;;;;19.87;1.80;;;3.00;96.20;;;;;;5093249;28;20150;-76
2022/01/05 05:00:45;;;;;;;12.83;2.30;;;3.10;96.20;;;;;;5076343;28;20062;-77
2022/01/05 05:03:11;;;;;;;12.80;2.13;;;3.10;96.30;;;;;;5093718;28;20410;-77
2022/01/05 05:05:36;;;;;;;16.77;1.43;;;3.10;96.30;;;;;;5093405;28;20028;-76
2022/01/05 05:08:02;;;;;;;8.10;1.80;;;3.10;96.10;;;;;;5084053;28;20032;-76
2022/01/05 05:10:28;;;;;;;6.60;1.30;;;3.20;96.10;;;;;;5106804;28;20028;-77
2022/01/05 05:12:54;;;;;;;13.30;1.73;;;3.20;96.20;;;;;;5112793;28;20039;-76
2022/01/05 05:15:20;;;;;;;11.57;1.63;;;3.30;96.20;;;;;;5113134;28;20051;-76
2022/01/05 05:17:45;;;;;;;13.13;2.10;;;3.30;96.10;;;;;;5114521;28;20024;-77
2022/01/05 05:20:11;;;;;;;15.50;1.70;;;3.30;96.10;;;;;;5096005;28;20023;-76
2022/01/05 05:22:37;;;;;;;13.50;1.73;;;3.30;96.10;;;;;;5114160;28;20027;-80
2022/01/05 05:25:04;;;;;;;14.03;1.83;;;3.30;96.20;;;;;;5112827;28;20494;-77
2022/01/05 05:27:30;;;;;;;9.87;1.80;;;3.40;96.20;;;;;;5112777;28;20443;-77
2022/01/05 05:29:56;;;;;;;18.17;2.77;;;3.40;96.20;;;;;;5112642;28;20020;-77
2022/01/05 05:32:21;;;;;;;14.30;1.97;;;3.40;96.30;;;;;;5112815;28;20101;-77
2022/01/05 05:34:47;;;;;;;16.60;1.87;;;3.50;96.30;;;;;;5114006;28;20032;-77
2022/01/05 05:37:15;;;;;;;10.30;1.90;;;3.50;96.30;;;;;;5113817;28;20034;-77
2022/01/05 05:39:41;;;;;;;15.13;2.10;;;3.50;96.30;;;;;;5112638;28;20379;-77
2022/01/05 05:42:08;;;;;;;20.20;2.73;;;3.60;96.30;;;;;;5112822;28;20024;-77
2022/01/05 05:44:33;;;;;;;17.90;2.43;;;3.40;96.30;;;;;;5109185;28;20437;-76
2022/01/05 05:46:59;;;;;;;16.70;2.27;;;3.50;96.40;;;;;;5113865;28;20059;-76
2022/01/05 05:49:25;;;;;;;14.80;2.80;;;3.50;96.50;;;;;;5095542;28;20031;-78
2022/01/05 05:51:50;;;;;;;21.60;2.37;;;3.50;96.60;;;;;;5112809;28;20519;-77
2022/01/05 05:54:16;;;;;;;21.90;2.57;;;3.50;96.50;;;;;;5112763;28;20468;-77
2022/01/05 05:56:42;;;;;;;17.43;2.40;;;3.60;96.60;;;;;;5095492;28;20035;-77
2022/01/05 05:59:08;;;;;;;17.30;2.37;;;3.60;96.80;;;;;;5113694;28;20023;-76
2022/01/05 06:01:33;;;;;;;18.97;3.03;;;3.70;96.60;;;;;;5077956;28;20019;-77
2022/01/05 06:03:59;;;;;;;19.00;2.63;;;3.70;96.60;;;;;;5112437;28;20032;-76
2022/01/05 06:06:25;;;;;;;17.70;2.30;;;3.80;96.90;;;;;;5113549;28;20031;-77
2022/01/05 06:08:50;;;;;;;19.93;3.13;;;3.70;96.50;;;;;;5113671;28;20038;-77
2022/01/05 06:11:16;;;;;;;21.17;2.87;;;3.80;96.50;;;;;;5112590;28;20039;-77
2022/01/05 06:13:42;;;;;;;17.13;2.23;;;3.90;96.50;;;;;;5112530;28;20548;-77
2022/01/05 06:16:07;;;;;;;16.87;3.17;;;3.90;96.50;;;;;;5112320;28;20072;-78
2022/01/05 06:18:33;;;;;;;15.57;2.20;;;4.00;96.40;;;;;;5095510;28;20375;-78
2022/01/05 06:20:58;;;;;;;17.03;2.13;;;4.00;96.30;;;;;;5095355;28;20020;-77
2022/01/05 06:23:24;;;;;;;15.20;2.57;;;4.00;96.20;;;;;;5095256;28;20426;-77
2022/01/05 06:25:50;;;;;;;16.10;2.77;;;4.10;96.10;;;;;;5095504;28;20034;-77
2022/01/05 06:28:15;;;;;;;19.07;3.03;;;4.10;96.00;;;;;;5095658;28;20027;-77
2022/01/05 06:30:41;;;;;;;20.07;2.60;;;4.20;96.00;;;;;;5112455;28;20110;-77
2022/01/05 06:33:07;;;;;;;11.80;2.43;;;4.30;95.90;;;;;;5113801;28;20031;-77
2022/01/05 06:35:34;;;;;;;17.70;2.43;;;4.20;95.80;;;;;;5113593;28;20047;-77
2022/01/05 06:38:00;;;;;;;16.87;2.87;;;4.30;95.80;;;;;;5112222;28;20016;-77
2022/01/05 06:40:26;;;;;;;11.87;2.33;;;4.30;95.60;;;;;;5112575;28;20027;-77
2022/01/05 06:42:52;;;;;;;15.73;2.37;;;4.40;95.60;;;;;;5112972;28;20075;-77
2022/01/05 06:45:18;;;;;;;20.27;2.93;;;4.30;95.60;;;;;;5113521;28;20491;-77
2022/01/05 06:47:43;;;;;;;23.93;2.47;;;4.40;95.60;;;;;;5113630;28;20067;-77
2022/01/05 06:50:10;;;;;;;10.63;1.63;;;4.40;95.40;;;;;;5113616;28;20035;-77
2022/01/05 06:52:36;;;;;;;13.17;2.07;;;4.40;95.40;;;;;;5113412;28;20079;-77
2022/01/05 06:55:03;;;;;;;15.43;2.43;;;4.50;95.30;;;;;;5113483;28;20028;-82
2022/01/05 06:57:29;;;;;;;16.50;2.33;;;4.50;95.30;;;;;;5106109;28;20024;-77
2022/01/05 06:59:55;;;;;;;13.90;2.63;;;4.50;95.30;;;;;;5093235;28;20032;-81
2022/01/05 07:02:20;;;;;;;18.37;1.80;;;4.50;95.20;;;;;;5109256;28;20035;-76
2022/01/05 07:04:46;;;;;;;14.97;2.30;;;4.50;94.70;;;;;;5093330;28;20039;-76
2022/01/05 07:07:11;;;;;;;23.87;3.17;;;4.50;95.10;;;;;;5104063;28;20032;-77
2022/01/05 07:09:37;;;;;;;20.43;2.17;;;4.50;95.30;;;;;;5095621;28;20543;-75
2022/01/05 07:12:03;;;;;;;21.00;2.87;;;4.70;95.20;;;;;;5103592;28;20032;-76
2022/01/05 07:14:29;;;;;;;16.80;2.87;;;4.60;95.30;;;;;;5096835;28;20016;-80
2022/01/05 07:16:54;;;;;;;18.90;2.20;;;4.50;95.30;;;;;;5096015;28;20024;-76
2022/01/05 07:19:20;;;;;;;11.97;2.30;;;4.60;95.30;;;;;;5110416;28;20058;-79
2022/01/05 07:21:49;;;;;;;20.00;2.70;;;4.50;95.20;;;;;;5086169;28;20038;-81
2022/01/05 07:24:17;;;;;;;18.07;3.10;;;4.60;95.10;;;;;;5115625;28;20464;-77
2022/01/05 07:26:44;;;;;;;21.63;2.93;;;4.60;95.10;;;;;;5115109;28;20484;-80
2022/01/05 07:29:11;;;;;;;18.47;2.60;;;4.70;95.20;;;;;;5115773;28;20488;-76
2022/01/05 07:31:37;;;;;;;19.40;3.03;;;4.70;95.00;;;;;;5098585;28;20023;-77
2022/01/05 07:34:03;;;;;;;21.47;2.80;;;4.70;95.10;;;;;;5098424;28;20024;-77
2022/01/05 07:36:28;;;;;;;19.57;2.47;;;4.70;94.80;;;;;;5097686;28;20024;-76
2022/01/05 07:38:54;;;;;;;14.67;2.40;;;4.60;94.80;;;;;;5115386;28;20034;-79
2022/01/05 07:41:20;;;;;;;19.40;2.73;;;4.70;94.80;;;;;;5098099;28;20422;-76
2022/01/05 07:43:45;;;;;;;14.70;3.20;;;4.70;94.90;;;;;;5114881;28;20019;-77
2022/01/05 07:46:11;;;;;;;14.87;2.57;;;4.80;94.80;;;;;;5114974;28;20462;-77
2022/01/05 07:48:37;;;;;;;17.00;3.47;;;4.80;94.80;;;;;;5098207;28;20540;-77
2022/01/05 07:51:02;;;;;;;10.70;2.43;;;4.80;94.70;;;;;;5114992;28;20395;-77
2022/01/05 07:53:28;;;;;;;22.17;2.30;;;4.90;94.70;;;;;;5114908;28;20035;-76
2022/01/05 07:55:54;;;;;;;19.60;2.97;;;4.90;94.80;;;;;;5097922;28;20032;-79
2022/01/05 07:58:21;;;;;;;16.07;2.20;;;4.90;94.70;;;;;;5097910;28;20028;-78
2022/01/05 08:00:47;;;;;;;21.80;2.40;;;4.90;94.80;;;;;;5115856;28;20028;-78
2022/01/05 08:03:12;;;;;;;20.63;2.77;;;4.90;94.80;;;;;;5114385;28;20555;-77
2022/01/05 08:05:38;;;;;;;12.07;2.13;;;5.00;94.80;;;;;;5116074;28;20032;-76
2022/01/05 08:08:04;;;;;;;17.37;2.43;;;5.00;94.80;;;;;;5115879;28;20494;-84
2022/01/05 08:10:29;;;;;;;19.00;2.60;;;5.00;94.80;;;;;;5114774;28;20525;-83
2022/01/05 08:12:55;;;;;;;15.47;2.77;;;5.00;94.90;;;;;;5116492;28;20028;-77
2022/01/05 08:15:21;;;;;;;13.70;1.90;;;5.00;95.00;;;;;;5114290;28;20120;-77
2022/01/05 08:17:46;;;;;;;15.00;1.97;;;5.10;95.10;;;;;;5094351;28;20020;-76
2022/01/05 08:20:12;;;;;;;21.40;3.03;;;5.10;95.30;;;;;;5076986;28;20049;-77
2022/01/05 08:22:43;;;;;;;20.77;3.30;;;5.10;95.70;;;;;;5111828;28;20030;-78
2022/01/05 08:25:10;;;;;;;16.67;2.70;;;5.00;96.00;;;;;;5114047;28;20580;-77
2022/01/05 08:27:37;;;;;;;16.10;2.57;;;5.00;96.20;;;;;;5114617;28;20119;-82
2022/01/05 08:30:05;;;;;;;16.60;2.53;;;5.00;96.40;;;;;;5077230;28;20066;-79
2022/01/05 08:32:32;;;;;;;26.30;3.50;;;5.00;96.70;;;;;;5094487;28;20020;-77
2022/01/05 08:34:58;;;;;;;17.90;2.80;;;5.00;96.90;;;;;;5077027;28;20024;-81
2022/01/05 08:37:24;;;;;;;18.27;2.93;;;5.00;97.10;;;;;;5091886;28;20035;-84
2022/01/05 08:39:53;;;;;;;21.83;3.50;;;4.90;97.20;;;;;;5097806;28;20051;-77
2022/01/05 08:42:18;;;;;;;28.60;3.37;;;4.90;97.50;;;;;;5114008;28;20433;-84
2022/01/05 08:44:44;;;;;;;20.33;3.10;;;5.00;97.90;;;;;;5113867;28;20028;-81
2022/01/05 08:47:10;;;;;;;22.27;3.20;;;4.90;98.20;;;;;;5113816;28;20052;-78
2022/01/05 08:49:35;;;;;;;20.20;2.80;;;5.00;98.70;;;;;;5097026;28;20032;-81
2022/01/05 08:52:01;;;;;;;22.37;3.23;;;4.90;98.70;;;;;;5097159;28;20690;-83
2022/01/05 08:54:27;;;;;;;33.50;5.97;;;4.90;98.90;;;;;;5080577;28;20038;-80
2022/01/05 08:56:54;;;;;;;20.27;3.50;;;4.90;99.30;;;;;;5095588;28;20029;-79
2022/01/05 08:59:20;;;;;;;23.03;2.90;;;4.80;99.60;;;;;;5113973;28;20055;-80
2022/01/05 09:01:46;;;;;;;18.60;3.73;;;4.70;99.80;;;;;;5113745;28;20058;-77
2022/01/05 09:04:11;;;;;;;23.47;3.13;;;4.60;99.90;;;;;;5096741;28;20024;-79
2022/01/05 09:06:37;;;;;;;15.07;2.37;;;4.70;99.90;;;;;;5115253;28;20028;-79
2022/01/05 09:09:03;;;;;;;24.30;3.60;;;4.60;99.90;;;;;;5114851;28;20035;-76
2022/01/05 09:11:29;;;;;;;22.50;3.70;;;4.60;99.90;;;;;;5114944;28;20023;-73
2022/01/05 09:13:55;;;;;;;22.43;4.30;;;4.60;99.90;;;;;;5113661;28;20482;-76
2022/01/05 09:16:21;;;;;;;27.20;4.53;;;4.50;99.90;;;;;;5114493;28;20411;-75
2022/01/05 09:18:47;;;;;;;24.60;4.47;;;4.60;99.90;;;;;;5114217;28;20026;-77
2022/01/05 09:21:13;;;;;;;18.33;3.50;;;4.50;99.90;;;;;;5113160;28;20023;-78
2022/01/05 09:23:38;;;;;;;32.03;3.67;;;4.50;99.90;;;;;;5096059;28;20024;-79
2022/01/05 09:26:04;;;;;;;24.10;3.90;;;4.50;99.90;;;;;;5079230;28;20032;-79
2022/01/05 09:28:30;;;;;;;17.50;3.30;;;4.40;99.90;;;;;;5114593;28;20024;-75
2022/01/05 09:30:56;;;;;;;26.20;4.63;;;4.50;99.90;;;;;;5096077;28;20544;-75
2022/01/05 09:33:24;;;;;;;21.73;3.60;;;4.60;99.90;;;;;;5113562;28;20066;-79
2022/01/05 09:36:00;;;;;;;23.87;3.47;;;4.50;99.90;;;;;;5112346;28;20391;-81
2022/01/05 09:41:56;;;;;;;30.63;3.73;;;4.50;99.90;;;;;;5102409;28;20028;-80
2022/01/05 09:44:11;;;;;;;23.83;3.50;;;4.60;99.90;;;;;;5114316;28;20080;-82
2022/01/05 09:46:55;;;;;;;21.47;3.17;;;4.60;99.90;;;;;;5114104;28;20078;-76
2022/01/05 09:49:35;;;;;;;22.63;4.23;;;4.60;99.90;;;;;;5103344;28;20541;-83
2022/01/05 09:52:06;;;;;;;28.57;3.47;;;4.60;99.90;;;;;;5112669;28;20027;-76
2022/01/05 09:54:33;;;;;;;25.90;3.23;;;4.60;99.90;;;;;;5114061;28;20023;-81
2022/01/05 09:56:59;;;;;;;29.50;3.60;;;4.70;99.90;;;;;;5079236;28;20068;-81
2022/01/05 09:59:25;;;;;;;27.93;3.97;;;4.60;99.90;;;;;;5096052;28;20122;-76
2022/01/05 10:01:51;;;;;;;31.07;4.17;;;4.50;99.90;;;;;;5114400;28;20020;-80
2022/01/05 10:04:16;;;;;;;20.07;3.80;;;4.60;99.90;;;;;;5096312;28;20023;-76
2022/01/05 10:06:42;;;;;;;29.03;4.23;;;4.50;99.90;;;;;;5112728;28;20024;-77
2022/01/05 10:09:08;;;;;;;21.17;3.83;;;4.50;99.90;;;;;;5112855;28;20056;-77
2022/01/05 10:11:35;;;;;;;26.20;4.40;;;4.50;99.90;;;;;;5113216;28;20034;-79
2022/01/05 10:14:01;;;;;;;31.07;4.83;;;4.50;99.90;;;;;;5114172;28;20032;-80
2022/01/05 10:16:27;;;;;;;34.30;6.67;;;4.50;99.90;;;;;;5112795;28;20364;-76
2022/01/05 10:18:52;;;;;;;29.60;5.20;;;4.60;99.90;;;;;;5112705;28;20023;-81
2022/01/05 10:21:18;;;;;;;25.30;4.70;;;4.60;99.90;;;;;;5114877;28;20019;-80
2022/01/05 10:23:52;;;;;;;32.43;5.07;;;4.70;99.90;;;;;;5112818;28;20012;-82
2022/01/05 10:26:24;;;;;;;28.15;4.88;;;4.60;99.90;;;;;;5112704;28;20031;-79
2022/01/05 10:29:13;;;;;;;30.63;4.23;;;4.70;99.90;;;;;;5112550;28;20055;-81
2022/01/05 10:31:40;;;;;;;33.63;4.73;;;4.70;99.90;;;;;;5087900;28;20042;-82
2022/01/05 10:34:29;;;;;;;34.27;4.50;;;4.70;99.90;;;;;;5112378;28;20034;-79
2022/01/05 10:36:56;;;;;;;34.00;5.17;;;4.80;99.90;;;;;;5112445;28;20035;-79
2022/01/05 10:39:31;;;;;;;36.33;5.47;;;4.70;99.90;;;;;;5112434;28;20048;-78
2022/01/05 10:42:04;;;;;;;31.43;5.23;;;4.80;99.90;;;;;;5114113;28;20035;-83
2022/01/05 10:44:29;;;;;;;34.63;4.50;;;4.90;99.90;;;;;;5112403;28;20023;-78
2022/01/05 10:46:58;;;;;;;27.73;5.27;;;5.00;99.90;;;;;;5096134;28;20407;-80
2022/01/05 10:49:32;;;;;;;34.47;6.33;;;5.00;99.90;;;;;;5099318;28;20028;-88
2022/01/05 10:52:01;;;;;;;34.93;5.53;;;5.00;99.90;;;;;;5116572;28;20031;-78
2022/01/05 10:54:29;;;;;;;34.53;5.77;;;5.00;99.90;;;;;;5117960;28;20521;-79
2022/01/05 10:57:07;;;;;;;35.83;5.50;;;5.10;99.90;;;;;;5117919;28;20165;-82
2022/01/05 10:59:38;;;;;;;31.77;3.90;;;5.10;99.90;;;;;;5116236;28;20024;-78
2022/01/05 11:02:31;;;;;;;34.77;5.50;;;5.20;99.90;;;;;;5116153;28;20108;-78
2022/01/05 11:05:06;;;;;;;36.60;6.17;;;5.20;99.90;;;;;;5116193;28;20019;-82
2022/01/05 11:07:34;;;;;;;28.03;4.30;;;5.30;99.90;;;;;;5117255;28;20088;-81
2022/01/05 11:10:08;;;;;;;26.50;4.70;;;5.50;99.90;;;;;;5117290;28;20023;-83
2022/01/05 11:12:40;;;;;;;36.27;4.43;;;5.50;99.90;;;;;;5115712;28;20391;-82
2022/01/05 11:15:27;;;;;;;40.83;4.77;;;5.50;99.90;;;;;;5116033;28;20020;-80
2022/01/05 11:18:14;;;;;;;37.40;5.10;;;5.50;99.90;;;;;;5116134;28;20431;-79
2022/01/05 11:20:51;;;;;;;34.97;5.00;;;5.40;99.90;;;;;;5115632;28;20138;-78
2022/01/05 11:23:21;;;;;;;34.40;4.30;;;5.40;99.90;;;;;;5117413;28;20106;-81
2022/01/05 11:25:47;;;;;;;31.50;4.67;;;5.40;99.90;;;;;;5097772;28;20039;-82
2022/01/05 11:28:14;;;;;;;38.90;5.87;;;5.40;99.90;;;;;;5096164;28;20032;-81
2022/01/05 11:30:41;;;;;;;30.33;5.03;;;5.30;99.90;;;;;;5078226;28;20063;-77
2022/01/05 11:33:07;;;;;;;35.03;5.77;;;5.40;99.90;;;;;;5104146;28;20369;-80
2022/01/05 11:35:33;;;;;;;31.67;4.47;;;5.40;99.90;;;;;;5118814;28;20042;-79
2022/01/05 11:38:00;;;;;;;33.43;3.83;;;5.40;99.90;;;;;;5117953;28;20600;-77
2022/01/05 11:40:26;;;;;;;31.50;4.73;;;5.30;99.90;;;;;;5114868;28;20027;-79
2022/01/05 11:43:03;;;;;;;29.33;3.57;;;5.30;99.90;;;;;;5117845;28;20024;-78
2022/01/05 11:45:45;;;;;;;41.17;5.53;;;5.40;99.90;;;;;;5117406;28;20024;-78
2022/01/05 11:48:12;;;;;;;29.47;3.80;;;5.40;99.90;;;;;;5117463;28;20495;-78
2022/01/05 11:50:44;;;;;;;37.33;4.30;;;5.40;99.90;;;;;;5114781;28;20031;-78
2022/01/05 11:53:09;;;;;;;25.90;2.97;;;5.40;99.90;;;;;;5116033;28;20036;-81
2022/01/05 11:56:01;;;;;;;25.50;3.20;;;5.40;99.90;;;;;;5114702;28;20024;-78
2022/01/05 11:58:29;;;;;;;33.77;4.43;;;5.40;99.90;;;;;;5114126;28;20020;-82
2022/01/05 12:01:13;;;;;;;25.90;2.07;;;5.30;99.90;;;;;;5114295;28;20038;-79
2022/01/05 12:03:49;;;;;;;25.90;4.32;;;5.40;99.90;;;;;;5116070;28;20027;-81
2022/01/05 12:06:16;;;;;;;24.90;2.40;;;5.30;99.90;;;;;;5114580;28;20034;-81
2022/01/05 12:08:50;;;;;;;30.00;4.40;;;5.40;99.90;;;;;;5114612;28;20038;-82
2022/01/05 12:11:42;;;;;;;25.10;3.97;;;5.40;99.90;;;;;;5114477;28;20046;-78
2022/01/05 12:14:19;;;;;;;24.40;3.33;;;5.50;99.90;;;;;;5114350;28;20065;-78
2022/01/05 12:17:00;;;;;;;36.67;3.63;;;5.50;99.90;;;;;;5115577;28;20028;-82
2022/01/05 12:19:28;;;;;;;40.70;4.10;;;5.60;99.90;;;;;;5114397;28;20544;-84
2022/01/05 12:21:56;;;;;;;30.83;3.87;;;5.60;99.90;;;;;;5114152;28;20024;-79
2022/01/05 12:24:42;;;;;;;29.83;4.33;;;5.60;99.90;;;;;;5115212;28;20420;-77
2022/01/05 12:27:25;;;;;;;30.33;4.33;;;5.60;99.90;;;;;;5099434;28;20034;-77
2022/01/05 12:29:52;;;;;;;23.37;3.97;;;5.70;99.90;;;;;;5113207;28;20126;-79
2022/01/05 12:32:41;;;;;;;24.93;2.97;;;5.70;99.90;;;;;;5093336;28;20427;-76
2022/01/05 12:35:20;;;;;;;26.60;4.07;;;5.70;99.90;;;;;;5109431;28;20605;-80
2022/01/05 12:37:57;;;;;;;26.23;3.70;;;5.80;99.90;;;;;;5092219;28;20093;-80
2022/01/05 12:40:42;;;;;;;37.40;4.30;;;5.80;99.90;;;;;;5110198;28;20020;-79
2022/01/05 12:43:08;;;;;;;28.27;3.73;;;5.70;99.90;;;;;;5110223;28;20468;-73
2022/01/05 12:45:51;;;;;;;22.83;3.13;;;5.80;99.90;;;;;;5093217;28;20070;-75
2022/01/05 12:48:32;;;;;;;44.00;4.67;;;5.80;99.90;;;;;;5110127;28;20522;-75
2022/01/05 12:51:16;;;;;;;29.63;3.83;;;5.90;99.90;;;;;;5094396;28;20415;-76
2022/01/05 12:54:07;;;;;;;37.00;4.70;;;6.00;99.90;;;;;;5094440;28;20052;-75